createdAt,value
2023-03-29T00:01:00.418Z,0.04
2023-03-29T00:04:13.940Z,0.01
2023-03-29T00:07:26.347Z,0.04
2023-03-29T00:10:38.970Z,0.02
2023-03-29T00:13:51.344Z,-0.07
2023-03-29T00:17:04.330Z,-0.16
2023-03-29T00:20:17.232Z,-0.24
2023-03-29T00:23:29.865Z,-0.38
2023-03-29T00:26:42.231Z,-0.43
2023-03-29T00:29:54.901Z,-0.44
2023-03-29T00:33:07.430Z,-0.47
2023-03-29T00:36:22.193Z,-0.39
2023-03-29T00:39:34.929Z,-0.41
2023-03-29T00:42:47.636Z,-0.48
2023-03-29T00:46:00.029Z,-0.54
2023-03-29T00:49:13.982Z,-0.51
2023-03-29T00:52:30.153Z,-0.55
2023-03-29T00:55:53.413Z,-0.56
2023-03-29T00:59:08.243Z,-0.57
2023-03-29T01:02:26.170Z,-0.64
2023-03-29T01:05:44.162Z,-0.74
2023-03-29T01:08:58.470Z,-0.84
2023-03-29T01:12:17.176Z,-0.69
2023-03-29T01:15:30.051Z,-0.84
2023-03-29T01:18:42.391Z,-0.81
2023-03-29T01:22:10.643Z,-0.80
2023-03-29T01:26:05.349Z,-0.75
2023-03-29T01:29:48.579Z,-0.86
2023-03-29T01:33:05.018Z,-0.89
2023-03-29T01:36:37.932Z,-0.79
2023-03-29T01:39:52.034Z,-0.86
2023-03-29T01:43:34.780Z,-1.03
2023-03-29T01:46:48.101Z,-1.05
2023-03-29T01:50:06.819Z,-1.11
2023-03-29T01:53:59.224Z,-1.18
2023-03-29T01:57:14.489Z,-1.28
2023-03-29T02:00:27.769Z,-1.27
2023-03-29T02:03:42.717Z,-1.45
2023-03-29T02:06:55.810Z,-1.52
2023-03-29T02:10:09.316Z,-1.56
2023-03-29T02:13:22.181Z,-1.65
2023-03-29T02:16:36.490Z,-1.65
2023-03-29T02:20:14.679Z,-1.74
2023-03-29T02:23:28.273Z,-1.71
2023-03-29T02:26:40.828Z,-1.72
2023-03-29T02:29:53.187Z,-1.74
2023-03-29T02:33:22.001Z,-1.67
2023-03-29T02:36:42.921Z,-1.75
2023-03-29T02:39:55.692Z,-1.73
2023-03-29T02:43:08.347Z,-1.80
2023-03-29T02:46:21.658Z,-1.80
2023-03-29T02:49:34.207Z,-1.74
2023-03-29T02:52:56.161Z,-2.06
2023-03-29T02:56:08.902Z,-2.11
2023-03-29T02:59:22.601Z,-2.08
2023-03-29T03:02:35.643Z,-2.03
2023-03-29T03:05:49.109Z,-1.99
2023-03-29T03:09:02.142Z,-2.13
2023-03-29T03:12:16.635Z,-2.14
2023-03-29T03:15:29.057Z,-2.24
2023-03-29T03:18:43.075Z,-2.44
2023-03-29T03:21:56.227Z,-2.52
2023-03-29T03:25:12.051Z,-2.42
2023-03-29T03:28:25.052Z,-2.36
2023-03-29T03:31:37.867Z,-2.22
2023-03-29T03:34:53.052Z,-2.25
2023-03-29T03:38:07.471Z,-2.13
2023-03-29T03:41:19.900Z,-2.03
2023-03-29T03:44:32.632Z,-1.99
2023-03-29T03:47:46.129Z,-2.05
2023-03-29T03:50:59.325Z,-2.06
2023-03-29T03:54:14.279Z,-2.16
2023-03-29T03:57:28.789Z,-2.36
2023-03-29T04:00:42.736Z,-2.21
2023-03-29T04:03:56.512Z,-2.34
2023-03-29T04:07:09.659Z,-2.25
2023-03-29T04:10:22.832Z,-2.43
2023-03-29T04:13:35.810Z,-2.52
2023-03-29T04:16:50.364Z,-2.54
2023-03-29T04:20:10.287Z,-2.45
2023-03-29T04:23:24.119Z,-2.47
2023-03-29T04:26:36.520Z,-2.52
2023-03-29T04:29:50.596Z,-2.47
2023-03-29T04:33:03.080Z,-2.37
2023-03-29T04:36:16.235Z,-2.30
2023-03-29T04:39:33.897Z,-2.24
2023-03-29T04:42:48.038Z,-2.19
2023-03-29T04:46:00.911Z,-2.16
2023-03-29T04:49:14.542Z,-2.10
2023-03-29T04:52:27.337Z,-2.01
2023-03-29T04:55:40.486Z,-1.97
2023-03-29T04:58:53.528Z,-1.86
2023-03-29T05:02:07.489Z,-2.06
2023-03-29T05:05:21.269Z,-1.85
2023-03-29T05:08:35.490Z,-1.81
2023-03-29T05:11:48.801Z,-1.65
2023-03-29T05:15:01.745Z,-1.50
2023-03-29T05:18:14.480Z,-1.35
2023-03-29T05:21:28.393Z,-1.32
2023-03-29T05:24:42.178Z,-1.02
2023-03-29T05:27:55.615Z,-1.13
2023-03-29T05:31:08.496Z,-0.76
2023-03-29T05:34:21.724Z,-0.79
2023-03-29T05:37:35.505Z,-0.53
2023-03-29T05:40:48.377Z,-0.49
2023-03-29T05:44:01.606Z,-0.29
2023-03-29T05:47:14.384Z,-0.10
2023-03-29T05:50:26.730Z,-0.20
2023-03-29T05:53:40.016Z,-0.03
2023-03-29T05:56:52.579Z,0.26
2023-03-29T06:00:24.153Z,0.11
2023-03-29T06:03:38.640Z,0.48
2023-03-29T06:06:53.295Z,0.23
2023-03-29T06:10:09.685Z,0.60
2023-03-29T06:13:23.400Z,0.68
2023-03-29T06:16:36.505Z,0.74
2023-03-29T06:19:48.980Z,0.59
2023-03-29T06:23:02.601Z,0.58
2023-03-29T06:26:15.028Z,0.79
2023-03-29T06:29:27.954Z,1.22
2023-03-29T06:32:41.812Z,1.24
2023-03-29T06:35:55.877Z,1.28
2023-03-29T06:39:09.958Z,1.43
2023-03-29T06:42:24.463Z,1.42
2023-03-29T06:45:42.721Z,1.63
2023-03-29T06:48:57.005Z,1.62
2023-03-29T06:52:12.365Z,1.66
2023-03-29T06:55:26.118Z,1.72
2023-03-29T06:58:39.339Z,2.04
2023-03-29T07:01:55.701Z,2.28
2023-03-29T07:05:13.605Z,2.20
2023-03-29T07:08:31.448Z,2.20
2023-03-29T07:11:44.655Z,2.28
2023-03-29T07:14:57.328Z,2.36
2023-03-29T07:18:12.727Z,2.51
2023-03-29T07:21:25.454Z,2.83
2023-03-29T07:24:38.138Z,3.13
2023-03-29T07:27:52.080Z,2.87
2023-03-29T07:31:06.903Z,2.94
2023-03-29T07:34:20.692Z,2.85
2023-03-29T07:37:35.140Z,2.91
2023-03-29T07:40:48.114Z,2.97
2023-03-29T07:44:08.985Z,2.90
2023-03-29T07:47:23.719Z,3.20
2023-03-29T07:50:37.648Z,3.08
2023-03-29T07:53:50.672Z,3.48
2023-03-29T07:57:06.915Z,3.47
2023-03-29T08:00:20.819Z,3.50
2023-03-29T08:03:35.175Z,3.45
2023-03-29T08:06:48.992Z,3.52
2023-03-29T08:10:03.239Z,3.41
2023-03-29T08:13:16.318Z,3.68
2023-03-29T08:16:29.882Z,3.87
2023-03-29T08:19:51.413Z,4.03
2023-03-29T08:23:06.452Z,3.97
2023-03-29T08:26:19.639Z,3.94
2023-03-29T08:29:32.607Z,4.55
2023-03-29T08:32:46.902Z,4.30
2023-03-29T08:36:02.073Z,4.41
2023-03-29T08:39:15.805Z,4.70
2023-03-29T08:43:06.190Z,4.68
2023-03-29T08:46:21.774Z,4.76
2023-03-29T08:49:36.648Z,4.70
2023-03-29T08:52:57.427Z,4.68
2023-03-29T08:56:15.958Z,4.69
2023-03-29T08:59:31.193Z,4.57
2023-03-29T09:02:44.339Z,4.87
2023-03-29T09:06:04.458Z,4.98
2023-03-29T09:09:19.287Z,5.17
2023-03-29T09:12:36.696Z,5.37
2023-03-29T09:16:35.257Z,5.76
2023-03-29T09:20:06.414Z,5.40
2023-03-29T09:23:25.438Z,6.18
2023-03-29T09:26:59.555Z,5.47
2023-03-29T09:30:14.560Z,5.70
2023-03-29T09:33:37.374Z,6.10
2023-03-29T09:36:56.631Z,5.74
2023-03-29T09:40:17.908Z,5.95
2023-03-29T09:43:38.425Z,6.07
2023-03-29T09:47:01.342Z,6.48
2023-03-29T09:50:30.996Z,6.37
2023-03-29T09:53:44.737Z,6.66
2023-03-29T09:56:59.635Z,6.17
2023-03-29T10:00:13.877Z,6.48
2023-03-29T10:03:31.227Z,6.51
2023-03-29T10:06:51.351Z,6.94
2023-03-29T10:10:07.960Z,7.11
2023-03-29T10:13:23.273Z,7.12
2023-03-29T10:16:40.562Z,6.45
2023-03-29T10:19:57.258Z,6.73
2023-03-29T10:23:17.748Z,6.56
2023-03-29T10:26:32.582Z,6.76
2023-03-29T10:29:45.306Z,6.85
2023-03-29T10:32:58.932Z,7.09
2023-03-29T10:36:12.075Z,6.76
2023-03-29T10:39:24.483Z,7.21
2023-03-29T10:42:37.857Z,7.25
2023-03-29T10:45:52.533Z,7.04
2023-03-29T10:49:10.297Z,7.25
2023-03-29T10:52:23.114Z,7.33
2023-03-29T10:55:39.211Z,7.10
2023-03-29T10:59:10.185Z,6.83
2023-03-29T11:02:48.849Z,7.56
2023-03-29T11:06:38.562Z,7.50
2023-03-29T11:10:19.254Z,7.78
2023-03-29T11:14:00.055Z,7.98
2023-03-29T11:17:34.274Z,7.92
2023-03-29T11:21:22.077Z,7.93
2023-03-29T11:24:43.742Z,7.81
2023-03-29T11:28:26.336Z,8.12
2023-03-29T11:31:58.630Z,8.78
2023-03-29T11:35:29.568Z,8.36
2023-03-29T11:38:48.204Z,8.28
2023-03-29T11:42:07.817Z,9.02
2023-03-29T11:45:48.400Z,8.50
2023-03-29T11:49:05.470Z,8.88
2023-03-29T11:52:33.772Z,9.14
2023-03-29T11:55:46.128Z,9.20
2023-03-29T11:59:03.031Z,9.27
2023-03-29T12:02:21.698Z,9.33
2023-03-29T12:05:59.977Z,10.59
2023-03-29T12:09:35.462Z,10.09
2023-03-29T12:12:53.101Z,10.74
2023-03-29T12:16:26.583Z,11.15
2023-03-29T12:19:49.034Z,9.86
2023-03-29T12:23:01.772Z,10.51
2023-03-29T12:26:44.888Z,10.21
2023-03-29T12:30:04.778Z,9.77
2023-03-29T12:33:23.363Z,9.46
2023-03-29T12:37:01.971Z,10.27
2023-03-29T12:40:18.806Z,9.33
2023-03-29T12:43:39.108Z,9.61
2023-03-29T12:46:57.254Z,10.26
2023-03-29T12:50:46.050Z,10.50
2023-03-29T12:54:08.587Z,9.88
2023-03-29T12:57:26.421Z,9.98
2023-03-29T13:00:42.654Z,9.10
2023-03-29T13:04:01.429Z,9.54
2023-03-29T13:07:23.183Z,9.60
2023-03-29T13:10:41.178Z,9.71
2023-03-29T13:13:53.760Z,9.24
2023-03-29T13:17:18.109Z,10.03
2023-03-29T13:20:57.168Z,10.49
2023-03-29T13:24:21.704Z,10.43
2023-03-29T13:28:27.922Z,10.27
2023-03-29T13:31:58.910Z,9.77
2023-03-29T13:35:18.210Z,10.30
2023-03-29T13:38:32.108Z,10.68
2023-03-29T13:41:49.447Z,10.90
2023-03-29T13:45:15.978Z,10.40
2023-03-29T13:48:33.713Z,11.35
2023-03-29T13:52:16.054Z,11.41
2023-03-29T13:55:33.679Z,11.01
2023-03-29T13:58:54.592Z,11.30
2023-03-29T14:02:07.537Z,11.48
2023-03-29T14:05:23.606Z,11.62
2023-03-29T14:08:41.103Z,11.55
2023-03-29T14:11:53.804Z,11.21
2023-03-29T14:15:06.969Z,10.88
2023-03-29T14:18:21.801Z,10.94
2023-03-29T14:21:34.170Z,11.42
2023-03-29T14:24:49.325Z,10.73
2023-03-29T14:28:01.704Z,10.34
2023-03-29T14:31:25.286Z,10.07
2023-03-29T14:34:37.960Z,10.41
2023-03-29T14:37:51.537Z,10.77
2023-03-29T14:41:03.985Z,11.43
2023-03-29T14:44:16.672Z,10.87
2023-03-29T14:47:30.772Z,10.63
2023-03-29T14:50:43.422Z,10.88
2023-03-29T14:53:57.199Z,11.54
2023-03-29T14:57:14.511Z,10.69
2023-03-29T15:00:42.503Z,10.50
2023-03-29T15:03:56.599Z,10.35
2023-03-29T15:07:09.766Z,9.98
2023-03-29T15:10:22.469Z,10.07
2023-03-29T15:13:34.873Z,9.52
2023-03-29T15:16:48.316Z,9.79
2023-03-29T15:20:11.029Z,9.62
2023-03-29T15:23:24.966Z,9.85
2023-03-29T15:26:37.792Z,9.73
2023-03-29T15:29:50.402Z,9.92
2023-03-29T15:33:32.798Z,10.08
2023-03-29T15:36:45.521Z,9.61
2023-03-29T15:39:57.916Z,9.46
2023-03-29T15:43:11.188Z,9.99
2023-03-29T15:46:23.557Z,9.62
2023-03-29T15:49:36.373Z,10.19
2023-03-29T15:52:48.676Z,9.77
2023-03-29T15:56:02.159Z,9.83
2023-03-29T15:59:14.945Z,9.93
2023-03-29T16:02:27.997Z,9.71
2023-03-29T16:05:41.842Z,9.82
2023-03-29T16:08:55.541Z,10.08
2023-03-29T16:12:10.417Z,9.81
2023-03-29T16:15:22.859Z,9.72
2023-03-29T16:18:35.817Z,9.78
2023-03-29T16:21:48.437Z,9.93
2023-03-29T16:25:01.086Z,10.02
2023-03-29T16:28:13.455Z,9.63
2023-03-29T16:31:27.194Z,9.51
2023-03-29T16:34:41.522Z,9.67
2023-03-29T16:37:54.187Z,9.72
2023-03-29T16:41:07.544Z,9.80
2023-03-29T16:44:23.795Z,9.53
2023-03-29T16:47:36.698Z,9.54
2023-03-29T16:50:49.573Z,9.53
2023-03-29T16:54:02.011Z,9.60
2023-03-29T16:57:14.615Z,9.58
2023-03-29T17:00:27.102Z,9.57
2023-03-29T17:03:39.838Z,9.48
2023-03-29T17:06:52.200Z,9.42
2023-03-29T17:10:06.855Z,9.37
2023-03-29T17:13:20.622Z,9.45
2023-03-29T17:16:33.285Z,9.22
2023-03-29T17:19:45.833Z,9.27
2023-03-29T17:22:58.523Z,9.16
2023-03-29T17:26:11.949Z,9.17
2023-03-29T17:29:24.602Z,9.16
2023-03-29T17:32:37.110Z,9.00
2023-03-29T17:35:49.787Z,8.99
2023-03-29T17:39:02.924Z,9.03
2023-03-29T17:42:17.230Z,8.89
2023-03-29T17:45:29.668Z,8.98
2023-03-29T17:48:42.235Z,8.80
2023-03-29T17:51:54.592Z,8.71
2023-03-29T17:55:13.615Z,8.61
2023-03-29T17:58:26.324Z,8.38
2023-03-29T18:01:39.535Z,8.51
2023-03-29T18:04:52.254Z,8.40
2023-03-29T18:08:04.591Z,8.13
2023-03-29T18:11:22.975Z,8.24
2023-03-29T18:14:35.655Z,8.09
2023-03-29T18:17:48.280Z,8.10
2023-03-29T18:21:00.844Z,7.89
2023-03-29T18:24:13.496Z,7.94
2023-03-29T18:27:26.306Z,7.89
2023-03-29T18:30:38.894Z,7.84
2023-03-29T18:33:51.240Z,7.77
2023-03-29T18:37:04.159Z,7.89
2023-03-29T18:40:20.288Z,7.85
2023-03-29T18:43:33.966Z,7.79
2023-03-29T18:46:46.319Z,7.87
2023-03-29T18:49:59.008Z,7.80
2023-03-29T18:53:11.364Z,7.82
2023-03-29T18:56:24.008Z,7.69
2023-03-29T18:59:36.627Z,7.82
2023-03-29T19:02:49.357Z,7.91
2023-03-29T19:06:02.262Z,7.91
2023-03-29T19:09:15.304Z,7.95
2023-03-29T19:12:28.232Z,8.00
2023-03-29T19:15:41.173Z,7.82
2023-03-29T19:18:53.663Z,7.72
2023-03-29T19:22:06.515Z,7.47
2023-03-29T19:25:19.073Z,7.34
2023-03-29T19:28:32.718Z,7.30
2023-03-29T19:31:45.403Z,7.15
2023-03-29T19:34:58.442Z,7.08
2023-03-29T19:38:11.178Z,7.07
2023-03-29T19:41:23.827Z,7.07
2023-03-29T19:44:38.224Z,7.17
2023-03-29T19:47:55.485Z,7.31
2023-03-29T19:51:08.077Z,7.28
2023-03-29T19:54:22.095Z,7.21
2023-03-29T19:57:34.549Z,7.30
2023-03-29T20:00:47.232Z,7.32
2023-03-29T20:03:59.880Z,7.32
2023-03-29T20:07:12.351Z,7.36
2023-03-29T20:10:24.951Z,7.43
2023-03-29T20:13:39.225Z,7.21
2023-03-29T20:16:52.774Z,7.37
2023-03-29T20:20:09.135Z,7.51
2023-03-29T20:23:21.775Z,7.40
2023-03-29T20:26:34.161Z,7.42
2023-03-29T20:29:46.751Z,7.39
2023-03-29T20:32:59.221Z,7.43
2023-03-29T20:36:13.416Z,7.51
2023-03-29T20:39:26.097Z,7.42
2023-03-29T20:42:38.828Z,7.55
2023-03-29T20:45:53.957Z,7.45
2023-03-29T20:49:10.272Z,7.43
2023-03-29T20:52:23.014Z,7.39
2023-03-29T20:55:38.127Z,7.42
2023-03-29T20:58:50.477Z,7.48
2023-03-29T21:02:03.115Z,7.51
2023-03-29T21:05:15.775Z,7.48
2023-03-29T21:08:29.781Z,7.51
2023-03-29T21:11:42.318Z,7.59
2023-03-29T21:14:55.281Z,7.59
2023-03-29T21:18:07.885Z,7.57
2023-03-29T21:21:22.720Z,7.61
2023-03-29T21:24:36.495Z,7.65
2023-03-29T21:27:49.287Z,7.50
2023-03-29T21:31:05.897Z,7.75
2023-03-29T21:34:18.814Z,7.56
2023-03-29T21:37:31.228Z,7.60
2023-03-29T21:40:43.810Z,7.68
2023-03-29T21:43:56.460Z,7.46
2023-03-29T21:47:09.095Z,7.48
2023-03-29T21:50:21.652Z,7.42
2023-03-29T21:53:34.587Z,7.38
2023-03-29T21:56:47.783Z,7.17
2023-03-29T22:00:00.401Z,7.39
2023-03-29T22:03:13.067Z,7.31
2023-03-29T22:06:25.743Z,7.15
2023-03-29T22:09:41.329Z,7.23
2023-03-29T22:12:53.924Z,7.18
2023-03-29T22:16:06.748Z,7.22
2023-03-29T22:19:19.360Z,7.20
2023-03-29T22:22:31.722Z,7.12
2023-03-29T22:25:44.373Z,7.14
2023-03-29T22:28:56.900Z,7.19
2023-03-29T22:32:09.584Z,7.25
2023-03-29T22:35:22.009Z,7.40
2023-03-29T22:38:34.620Z,7.40
2023-03-29T22:41:47.048Z,7.33
2023-03-29T22:44:59.653Z,7.17
2023-03-29T22:48:12.206Z,7.03
2023-03-29T22:51:24.819Z,6.95
2023-03-29T22:54:37.198Z,6.87
2023-03-29T22:57:49.835Z,7.00
2023-03-29T23:01:03.018Z,6.96
2023-03-29T23:04:16.026Z,6.78
2023-03-29T23:07:28.429Z,6.77
2023-03-29T23:10:41.356Z,6.85
2023-03-29T23:13:54.039Z,6.71
2023-03-29T23:17:07.679Z,6.87
2023-03-29T23:20:21.069Z,6.73
2023-03-29T23:23:33.868Z,6.63
2023-03-29T23:26:49.033Z,6.63
2023-03-29T23:30:01.711Z,6.36
2023-03-29T23:33:14.506Z,6.24
2023-03-29T23:36:31.154Z,6.23
2023-03-29T23:39:43.483Z,6.15
2023-03-29T23:42:59.618Z,6.06
2023-03-29T23:46:15.236Z,5.91
2023-03-29T23:49:28.208Z,5.99
2023-03-29T23:52:41.150Z,5.88
2023-03-29T23:55:56.242Z,5.70
2023-03-29T23:59:08.837Z,5.60
